El Dorado Springs, MO (64744)

9:33 PM CDT on August 30, 2015 (GMT -0500)
St. Clair County | | Change Station
CLOSE
Current Station
Personal Weather Station
Location: Osceola, MO
Elevation: 965 ft
Nearby Weather Stations

Elev 965 ft 37.90 °N, 93.80 °W | Updated 1 minute ago

Clear
Clear
77.2 °F
Feels Like 79 °F
N
0.0
Wind Variable Wind from ESE
Gusts 0.0 mph

Today
High -- | Low -- °F
--% Chance of Precip.
Yesterday
High -- | Low -- °F
Precip. -- in
6:44 AM 7:48 PM
Full, 97% visible
Pressure 29.99 in
Visibility 5.0 miles
Clouds Clear
Heat Index 79 °F
Dew Point 73 °F
Humidity 86%
Rainfall 0.00 in
Snow Depth Not available.
UV 0.0 out of 12
Pollen 10.00 out of 12
Air Quality Not available.
Flu Activity Not available.
METAR KGLY 310215Z AUTO 00000KT 5SM BR CLR 25/24 A2999 RMK AO2
Pressure 29.99 in
Visibility 5.0 miles
Clouds Clear
Heat Index 79 °F
Dew Point 73 °F
Humidity 86%
Rainfall 0.00 in
Snow Depth Not available.
UV 0.0 out of 12
Pollen 10.00 out of 12
Air Quality Not available.
Flu Activity Not available.
METAR KGLY 310215Z AUTO 00000KT 5SM BR CLR 25/24 A2999 RMK AO2

10-Day Weather Forecast

×

Almanac

Astronomy

Aug. 30, 2015 Rise Set
Actual Time
Civil Twilight
Nautical Twilight
Astronomical Twilight
Moon
Length of Visible Light
Length of Day
Tomorrow will be .
, % of the Moon is Illuminated

Today's Extremes

State Highs State Lows

Community

WunderPhotos

Upload Photos

1,851,164 photos uploaded!

WunderBlogs® & News

Nearby

Air Quality

  Air Quality AQ Index Pollutant
Not available.

Snow Depth

Station Depth Elevation

Earthquake Activity

City Distance Mag. Time & Date
Minimum magnitude displayed is 2.5.

Coastal Water Temperatures

Place Temperature

Stations

Nearby Weather Stations

Station Location Temp. Windchill Dew Point Humidity Wind Precip. Elev Updated Type